sensor_id;sensor_type;location;lat;lon;timestamp;P1;durP1;ratioP1;P2;durP2;ratioP2
12290;SDS011;6208;48.956;9.076;2023-04-06T00:00:19;8.90;;;6.00;;
12290;SDS011;6208;48.956;9.076;2023-04-06T00:03:04;24.17;;;12.67;;
12290;SDS011;6208;48.956;9.076;2023-04-06T00:05:49;9.87;;;6.70;;
12290;SDS011;6208;48.956;9.076;2023-04-06T00:08:34;6.43;;;5.53;;
12290;SDS011;6208;48.956;9.076;2023-04-06T00:11:18;6.30;;;5.70;;
12290;SDS011;6208;48.956;9.076;2023-04-06T00:14:03;8.43;;;6.57;;
12290;SDS011;6208;48.956;9.076;2023-04-06T00:16:48;8.50;;;5.80;;
12290;SDS011;6208;48.956;9.076;2023-04-06T00:19:32;6.83;;;5.97;;
12290;SDS011;6208;48.956;9.076;2023-04-06T00:22:16;6.23;;;5.63;;
12290;SDS011;6208;48.956;9.076;2023-04-06T00:25:00;7.03;;;5.63;;
12290;SDS011;6208;48.956;9.076;2023-04-06T00:27:45;7.63;;;6.10;;
12290;SDS011;6208;48.956;9.076;2023-04-06T00:30:29;8.97;;;5.87;;
12290;SDS011;6208;48.956;9.076;2023-04-06T00:33:13;6.43;;;5.00;;
12290;SDS011;6208;48.956;9.076;2023-04-06T00:35:57;5.73;;;5.23;;
12290;SDS011;6208;48.956;9.076;2023-04-06T00:38:41;6.20;;;5.60;;
12290;SDS011;6208;48.956;9.076;2023-04-06T00:41:26;7.63;;;5.83;;
12290;SDS011;6208;48.956;9.076;2023-04-06T00:44:10;6.13;;;5.47;;
12290;SDS011;6208;48.956;9.076;2023-04-06T00:46:55;6.10;;;5.13;;
12290;SDS011;6208;48.956;9.076;2023-04-06T00:49:40;6.77;;;6.03;;
12290;SDS011;6208;48.956;9.076;2023-04-06T00:52:24;6.20;;;5.70;;
12290;SDS011;6208;48.956;9.076;2023-04-06T00:55:09;6.77;;;5.73;;
12290;SDS011;6208;48.956;9.076;2023-04-06T00:57:53;6.47;;;5.50;;
12290;SDS011;6208;48.956;9.076;2023-04-06T01:00:40;10.97;;;6.07;;
12290;SDS011;6208;48.956;9.076;2023-04-06T01:03:25;6.73;;;5.80;;
12290;SDS011;6208;48.956;9.076;2023-04-06T01:06:09;7.40;;;5.80;;
12290;SDS011;6208;48.956;9.076;2023-04-06T01:08:54;6.83;;;5.63;;
12290;SDS011;6208;48.956;9.076;2023-04-06T01:11:38;6.77;;;6.07;;
12290;SDS011;6208;48.956;9.076;2023-04-06T01:14:23;9.13;;;5.80;;
12290;SDS011;6208;48.956;9.076;2023-04-06T01:17:08;7.57;;;6.10;;
12290;SDS011;6208;48.956;9.076;2023-04-06T01:19:53;6.70;;;6.00;;
12290;SDS011;6208;48.956;9.076;2023-04-06T01:22:37;8.00;;;6.60;;
12290;SDS011;6208;48.956;9.076;2023-04-06T01:25:22;7.93;;;6.80;;
12290;SDS011;6208;48.956;9.076;2023-04-06T01:28:07;6.83;;;6.20;;
12290;SDS011;6208;48.956;9.076;2023-04-06T01:30:51;8.97;;;7.70;;
12290;SDS011;6208;48.956;9.076;2023-04-06T01:33:35;7.90;;;7.00;;
12290;SDS011;6208;48.956;9.076;2023-04-06T01:36:20;7.17;;;6.40;;
12290;SDS011;6208;48.956;9.076;2023-04-06T01:39:04;7.50;;;6.73;;
12290;SDS011;6208;48.956;9.076;2023-04-06T01:41:49;7.10;;;6.20;;
12290;SDS011;6208;48.956;9.076;2023-04-06T01:44:33;8.57;;;6.70;;
12290;SDS011;6208;48.956;9.076;2023-04-06T01:47:18;7.40;;;6.63;;
12290;SDS011;6208;48.956;9.076;2023-04-06T01:50:02;7.43;;;6.27;;
12290;SDS011;6208;48.956;9.076;2023-04-06T01:52:49;8.37;;;6.07;;
12290;SDS011;6208;48.956;9.076;2023-04-06T01:55:33;6.87;;;6.27;;
12290;SDS011;6208;48.956;9.076;2023-04-06T01:58:18;6.90;;;6.23;;
12290;SDS011;6208;48.956;9.076;2023-04-06T02:01:05;6.57;;;5.97;;
12290;SDS011;6208;48.956;9.076;2023-04-06T02:03:50;8.37;;;6.40;;
12290;SDS011;6208;48.956;9.076;2023-04-06T02:06:34;8.17;;;6.50;;
12290;SDS011;6208;48.956;9.076;2023-04-06T02:09:18;7.43;;;6.50;;
12290;SDS011;6208;48.956;9.076;2023-04-06T02:12:03;7.40;;;6.33;;
12290;SDS011;6208;48.956;9.076;2023-04-06T02:14:47;6.67;;;5.93;;
12290;SDS011;6208;48.956;9.076;2023-04-06T02:17:32;7.57;;;6.47;;
12290;SDS011;6208;48.956;9.076;2023-04-06T02:20:17;7.47;;;6.50;;
12290;SDS011;6208;48.956;9.076;2023-04-06T02:23:01;8.73;;;6.60;;
12290;SDS011;6208;48.956;9.076;2023-04-06T02:25:45;8.10;;;7.20;;
12290;SDS011;6208;48.956;9.076;2023-04-06T02:28:30;7.50;;;6.70;;
12290;SDS011;6208;48.956;9.076;2023-04-06T02:31:14;9.10;;;7.23;;
12290;SDS011;6208;48.956;9.076;2023-04-06T02:33:59;9.93;;;7.83;;
12290;SDS011;6208;48.956;9.076;2023-04-06T02:36:44;9.57;;;8.67;;
12290;SDS011;6208;48.956;9.076;2023-04-06T02:39:30;14.90;;;7.67;;
12290;SDS011;6208;48.956;9.076;2023-04-06T02:42:14;8.60;;;6.80;;
12290;SDS011;6208;48.956;9.076;2023-04-06T02:44:59;8.17;;;6.03;;
12290;SDS011;6208;48.956;9.076;2023-04-06T02:47:44;6.87;;;6.10;;
12290;SDS011;6208;48.956;9.076;2023-04-06T02:50:28;7.60;;;6.53;;
12290;SDS011;6208;48.956;9.076;2023-04-06T02:53:13;9.00;;;7.73;;
12290;SDS011;6208;48.956;9.076;2023-04-06T02:55:57;9.33;;;7.83;;
12290;SDS011;6208;48.956;9.076;2023-04-06T02:58:41;9.30;;;8.10;;
12290;SDS011;6208;48.956;9.076;2023-04-06T03:01:26;12.93;;;8.63;;
12290;SDS011;6208;48.956;9.076;2023-04-06T03:04:10;12.43;;;9.07;;
12290;SDS011;6208;48.956;9.076;2023-04-06T03:06:55;8.63;;;6.80;;
12290;SDS011;6208;48.956;9.076;2023-04-06T03:09:39;7.83;;;7.03;;
12290;SDS011;6208;48.956;9.076;2023-04-06T03:12:26;7.93;;;6.90;;
12290;SDS011;6208;48.956;9.076;2023-04-06T03:15:11;7.63;;;6.90;;
12290;SDS011;6208;48.956;9.076;2023-04-06T03:17:55;8.47;;;7.37;;
12290;SDS011;6208;48.956;9.076;2023-04-06T03:20:39;9.03;;;7.33;;
12290;SDS011;6208;48.956;9.076;2023-04-06T03:23:24;8.90;;;7.43;;
12290;SDS011;6208;48.956;9.076;2023-04-06T03:26:08;11.27;;;7.27;;
12290;SDS011;6208;48.956;9.076;2023-04-06T03:28:53;8.43;;;7.03;;
12290;SDS011;6208;48.956;9.076;2023-04-06T03:31:38;8.13;;;6.97;;
12290;SDS011;6208;48.956;9.076;2023-04-06T03:34:23;8.53;;;7.37;;
12290;SDS011;6208;48.956;9.076;2023-04-06T03:37:07;7.30;;;6.60;;
12290;SDS011;6208;48.956;9.076;2023-04-06T03:39:51;7.73;;;6.93;;
12290;SDS011;6208;48.956;9.076;2023-04-06T03:42:35;7.83;;;6.67;;
12290;SDS011;6208;48.956;9.076;2023-04-06T03:45:20;8.73;;;7.30;;
12290;SDS011;6208;48.956;9.076;2023-04-06T03:48:04;9.37;;;7.50;;
12290;SDS011;6208;48.956;9.076;2023-04-06T03:50:49;8.40;;;7.37;;
12290;SDS011;6208;48.956;9.076;2023-04-06T03:53:33;7.80;;;6.27;;
12290;SDS011;6208;48.956;9.076;2023-04-06T03:56:18;7.87;;;7.00;;
12290;SDS011;6208;48.956;9.076;2023-04-06T03:59:03;8.37;;;7.03;;
12290;SDS011;6208;48.956;9.076;2023-04-06T04:01:47;7.70;;;6.40;;
12290;SDS011;6208;48.956;9.076;2023-04-06T04:04:32;7.97;;;6.60;;
12290;SDS011;6208;48.956;9.076;2023-04-06T04:07:16;12.93;;;6.83;;
12290;SDS011;6208;48.956;9.076;2023-04-06T04:10:01;7.87;;;7.07;;
12290;SDS011;6208;48.956;9.076;2023-04-06T04:12:45;12.50;;;6.87;;
12290;SDS011;6208;48.956;9.076;2023-04-06T04:15:29;11.97;;;6.10;;
12290;SDS011;6208;48.956;9.076;2023-04-06T04:18:13;8.00;;;7.17;;
12290;SDS011;6208;48.956;9.076;2023-04-06T04:20:58;12.17;;;7.07;;
12290;SDS011;6208;48.956;9.076;2023-04-06T04:23:43;10.10;;;7.33;;
12290;SDS011;6208;48.956;9.076;2023-04-06T04:26:27;8.70;;;7.80;;
12290;SDS011;6208;48.956;9.076;2023-04-06T04:29:11;10.10;;;8.63;;
12290;SDS011;6208;48.956;9.076;2023-04-06T04:31:56;10.27;;;8.00;;
12290;SDS011;6208;48.956;9.076;2023-04-06T04:34:40;11.10;;;8.33;;
12290;SDS011;6208;48.956;9.076;2023-04-06T04:37:25;9.83;;;8.47;;
12290;SDS011;6208;48.956;9.076;2023-04-06T04:40:09;9.77;;;8.40;;
12290;SDS011;6208;48.956;9.076;2023-04-06T04:42:54;9.93;;;8.20;;
12290;SDS011;6208;48.956;9.076;2023-04-06T04:45:39;9.57;;;7.87;;
12290;SDS011;6208;48.956;9.076;2023-04-06T04:48:24;9.87;;;8.63;;
12290;SDS011;6208;48.956;9.076;2023-04-06T04:51:09;14.50;;;8.80;;
12290;SDS011;6208;48.956;9.076;2023-04-06T04:53:53;11.43;;;9.60;;
12290;SDS011;6208;48.956;9.076;2023-04-06T04:56:37;14.43;;;8.60;;
12290;SDS011;6208;48.956;9.076;2023-04-06T04:59:22;9.13;;;7.97;;
12290;SDS011;6208;48.956;9.076;2023-04-06T05:02:06;9.37;;;8.43;;
12290;SDS011;6208;48.956;9.076;2023-04-06T05:04:51;12.10;;;9.10;;
12290;SDS011;6208;48.956;9.076;2023-04-06T05:07:35;13.43;;;9.27;;
12290;SDS011;6208;48.956;9.076;2023-04-06T05:10:19;9.87;;;8.30;;
12290;SDS011;6208;48.956;9.076;2023-04-06T05:13:04;9.30;;;8.10;;
12290;SDS011;6208;48.956;9.076;2023-04-06T05:15:49;13.33;;;7.77;;
12290;SDS011;6208;48.956;9.076;2023-04-06T05:18:33;9.00;;;7.97;;
12290;SDS011;6208;48.956;9.076;2023-04-06T05:21:18;12.37;;;8.10;;
12290;SDS011;6208;48.956;9.076;2023-04-06T05:24:03;10.50;;;7.37;;
12290;SDS011;6208;48.956;9.076;2023-04-06T05:26:48;9.27;;;7.53;;
12290;SDS011;6208;48.956;9.076;2023-04-06T05:29:33;10.77;;;8.03;;
12290;SDS011;6208;48.956;9.076;2023-04-06T05:32:17;11.20;;;8.37;;
12290;SDS011;6208;48.956;9.076;2023-04-06T05:35:05;11.93;;;8.00;;
12290;SDS011;6208;48.956;9.076;2023-04-06T05:37:50;11.20;;;8.67;;
12290;SDS011;6208;48.956;9.076;2023-04-06T05:40:34;11.30;;;9.03;;
12290;SDS011;6208;48.956;9.076;2023-04-06T05:43:20;12.40;;;9.97;;
12290;SDS011;6208;48.956;9.076;2023-04-06T05:46:05;12.60;;;8.70;;
12290;SDS011;6208;48.956;9.076;2023-04-06T05:48:49;11.87;;;9.10;;
12290;SDS011;6208;48.956;9.076;2023-04-06T05:51:33;9.70;;;8.70;;
12290;SDS011;6208;48.956;9.076;2023-04-06T05:54:18;12.03;;;8.80;;
12290;SDS011;6208;48.956;9.076;2023-04-06T05:57:02;12.60;;;9.87;;
12290;SDS011;6208;48.956;9.076;2023-04-06T05:59:47;10.57;;;8.83;;
12290;SDS011;6208;48.956;9.076;2023-04-06T06:02:31;9.70;;;8.70;;
12290;SDS011;6208;48.956;9.076;2023-04-06T06:05:15;12.03;;;10.10;;
12290;SDS011;6208;48.956;9.076;2023-04-06T06:08:00;13.90;;;9.63;;
12290;SDS011;6208;48.956;9.076;2023-04-06T06:10:45;11.17;;;9.70;;
12290;SDS011;6208;48.956;9.076;2023-04-06T06:13:30;15.43;;;9.50;;
12290;SDS011;6208;48.956;9.076;2023-04-06T06:16:14;10.80;;;8.83;;
12290;SDS011;6208;48.956;9.076;2023-04-06T06:18:58;10.43;;;9.30;;
12290;SDS011;6208;48.956;9.076;2023-04-06T06:21:43;11.13;;;9.23;;
12290;SDS011;6208;48.956;9.076;2023-04-06T06:24:27;12.37;;;9.83;;
12290;SDS011;6208;48.956;9.076;2023-04-06T06:27:12;12.43;;;9.63;;
12290;SDS011;6208;48.956;9.076;2023-04-06T06:29:56;10.43;;;9.27;;
12290;SDS011;6208;48.956;9.076;2023-04-06T06:32:40;15.20;;;9.13;;
12290;SDS011;6208;48.956;9.076;2023-04-06T06:35:25;11.23;;;9.37;;
12290;SDS011;6208;48.956;9.076;2023-04-06T06:38:09;13.87;;;11.13;;
12290;SDS011;6208;48.956;9.076;2023-04-06T06:40:53;12.47;;;9.60;;
12290;SDS011;6208;48.956;9.076;2023-04-06T06:43:38;13.87;;;9.97;;
12290;SDS011;6208;48.956;9.076;2023-04-06T06:46:23;15.10;;;9.97;;
12290;SDS011;6208;48.956;9.076;2023-04-06T06:49:07;10.70;;;9.40;;
12290;SDS011;6208;48.956;9.076;2023-04-06T06:51:51;11.30;;;10.10;;
12290;SDS011;6208;48.956;9.076;2023-04-06T06:54:35;10.77;;;9.67;;
12290;SDS011;6208;48.956;9.076;2023-04-06T06:57:20;12.13;;;10.60;;
12290;SDS011;6208;48.956;9.076;2023-04-06T07:00:04;13.67;;;9.80;;
12290;SDS011;6208;48.956;9.076;2023-04-06T07:02:50;11.37;;;9.67;;
12290;SDS011;6208;48.956;9.076;2023-04-06T07:05:35;11.03;;;9.83;;
12290;SDS011;6208;48.956;9.076;2023-04-06T07:08:23;11.40;;;9.67;;
12290;SDS011;6208;48.956;9.076;2023-04-06T07:11:07;13.20;;;9.40;;
12290;SDS011;6208;48.956;9.076;2023-04-06T07:13:51;10.77;;;9.77;;
12290;SDS011;6208;48.956;9.076;2023-04-06T07:16:36;11.83;;;9.70;;
12290;SDS011;6208;48.956;9.076;2023-04-06T07:19:20;10.93;;;9.83;;
12290;SDS011;6208;48.956;9.076;2023-04-06T07:22:05;11.10;;;9.90;;
12290;SDS011;6208;48.956;9.076;2023-04-06T07:24:49;12.83;;;10.70;;
12290;SDS011;6208;48.956;9.076;2023-04-06T07:27:33;14.20;;;10.97;;
12290;SDS011;6208;48.956;9.076;2023-04-06T07:30:18;13.03;;;10.53;;
12290;SDS011;6208;48.956;9.076;2023-04-06T07:33:03;14.53;;;10.37;;
12290;SDS011;6208;48.956;9.076;2023-04-06T07:35:48;11.50;;;10.33;;
12290;SDS011;6208;48.956;9.076;2023-04-06T07:38:33;11.33;;;10.13;;
12290;SDS011;6208;48.956;9.076;2023-04-06T07:41:17;11.33;;;9.90;;
12290;SDS011;6208;48.956;9.076;2023-04-06T07:44:01;10.20;;;9.10;;
12290;SDS011;6208;48.956;9.076;2023-04-06T07:46:45;11.93;;;9.73;;
12290;SDS011;6208;48.956;9.076;2023-04-06T07:49:29;15.67;;;10.67;;
12290;SDS011;6208;48.956;9.076;2023-04-06T07:52:14;11.33;;;10.17;;
12290;SDS011;6208;48.956;9.076;2023-04-06T07:54:58;11.47;;;10.20;;
12290;SDS011;6208;48.956;9.076;2023-04-06T07:57:42;10.60;;;9.50;;
12290;SDS011;6208;48.956;9.076;2023-04-06T08:00:26;11.17;;;9.60;;
12290;SDS011;6208;48.956;9.076;2023-04-06T08:03:10;10.20;;;9.20;;
12290;SDS011;6208;48.956;9.076;2023-04-06T08:05:54;11.83;;;9.37;;
12290;SDS011;6208;48.956;9.076;2023-04-06T08:08:39;11.93;;;10.65;;
12290;SDS011;6208;48.956;9.076;2023-04-06T08:11:23;10.88;;;9.75;;
12290;SDS011;6208;48.956;9.076;2023-04-06T08:14:08;10.68;;;9.68;;
12290;SDS011;6208;48.956;9.076;2023-04-06T08:16:52;13.80;;;10.55;;
12290;SDS011;6208;48.956;9.076;2023-04-06T08:19:36;9.45;;;8.45;;
12290;SDS011;6208;48.956;9.076;2023-04-06T08:22:20;14.45;;;9.52;;
12290;SDS011;6208;48.956;9.076;2023-04-06T08:25:05;11.05;;;9.27;;
12290;SDS011;6208;48.956;9.076;2023-04-06T08:27:49;10.52;;;8.98;;
12290;SDS011;6208;48.956;9.076;2023-04-06T08:30:34;10.20;;;9.02;;
12290;SDS011;6208;48.956;9.076;2023-04-06T08:33:18;10.55;;;9.45;;
12290;SDS011;6208;48.956;9.076;2023-04-06T08:36:12;11.02;;;8.43;;
12290;SDS011;6208;48.956;9.076;2023-04-06T08:38:59;13.00;;;8.05;;
12290;SDS011;6208;48.956;9.076;2023-04-06T08:41:44;9.20;;;8.27;;
12290;SDS011;6208;48.956;9.076;2023-04-06T08:44:29;8.38;;;7.57;;
12290;SDS011;6208;48.956;9.076;2023-04-06T08:47:15;11.95;;;7.70;;
12290;SDS011;6208;48.956;9.076;2023-04-06T08:50:00;10.20;;;7.70;;
12290;SDS011;6208;48.956;9.076;2023-04-06T08:52:51;9.32;;;8.07;;
12290;SDS011;6208;48.956;9.076;2023-04-06T08:55:35;11.30;;;7.60;;
12290;SDS011;6208;48.956;9.076;2023-04-06T08:58:20;10.55;;;8.65;;
12290;SDS011;6208;48.956;9.076;2023-04-06T09:01:07;9.77;;;7.97;;
12290;SDS011;6208;48.956;9.076;2023-04-06T09:03:55;7.82;;;7.13;;
12290;SDS011;6208;48.956;9.076;2023-04-06T09:06:46;9.00;;;7.72;;
12290;SDS011;6208;48.956;9.076;2023-04-06T09:09:30;8.45;;;7.03;;
12290;SDS011;6208;48.956;9.076;2023-04-06T09:12:24;8.65;;;7.78;;
12290;SDS011;6208;48.956;9.076;2023-04-06T09:15:20;8.85;;;7.95;;
12290;SDS011;6208;48.956;9.076;2023-04-06T09:18:05;8.57;;;7.57;;
12290;SDS011;6208;48.956;9.076;2023-04-06T09:21:03;8.70;;;7.55;;
12290;SDS011;6208;48.956;9.076;2023-04-06T09:23:57;10.77;;;7.90;;
12290;SDS011;6208;48.956;9.076;2023-04-06T09:26:48;9.98;;;8.68;;
12290;SDS011;6208;48.956;9.076;2023-04-06T09:29:32;9.00;;;7.47;;
12290;SDS011;6208;48.956;9.076;2023-04-06T09:32:16;8.05;;;6.85;;
12290;SDS011;6208;48.956;9.076;2023-04-06T09:35:07;8.43;;;7.63;;
12290;SDS011;6208;48.956;9.076;2023-04-06T09:37:52;7.43;;;6.75;;
12290;SDS011;6208;48.956;9.076;2023-04-06T09:40:46;7.80;;;7.00;;
12290;SDS011;6208;48.956;9.076;2023-04-06T09:43:35;7.97;;;7.07;;
12290;SDS011;6208;48.956;9.076;2023-04-06T09:46:20;7.55;;;6.85;;
12290;SDS011;6208;48.956;9.076;2023-04-06T09:49:07;7.75;;;6.50;;
12290;SDS011;6208;48.956;9.076;2023-04-06T09:52:04;7.53;;;6.80;;
12290;SDS011;6208;48.956;9.076;2023-04-06T09:54:50;9.75;;;6.63;;
12290;SDS011;6208;48.956;9.076;2023-04-06T10:01:29;10.45;;;7.53;;
12290;SDS011;6208;48.956;9.076;2023-04-06T10:04:28;9.07;;;7.00;;
12290;SDS011;6208;48.956;9.076;2023-04-06T10:07:24;8.45;;;6.63;;
12290;SDS011;6208;48.956;9.076;2023-04-06T10:10:10;7.20;;;6.47;;
12290;SDS011;6208;48.956;9.076;2023-04-06T10:12:57;8.63;;;6.20;;
12290;SDS011;6208;48.956;9.076;2023-04-06T10:15:42;9.70;;;7.00;;
12290;SDS011;6208;48.956;9.076;2023-04-06T10:18:27;7.85;;;6.50;;
12290;SDS011;6208;48.956;9.076;2023-04-06T10:21:12;9.15;;;7.60;;
12290;SDS011;6208;48.956;9.076;2023-04-06T10:24:08;6.90;;;6.28;;
12290;SDS011;6208;48.956;9.076;2023-04-06T10:26:58;7.75;;;6.95;;
12290;SDS011;6208;48.956;9.076;2023-04-06T10:29:46;7.55;;;6.90;;
12290;SDS011;6208;48.956;9.076;2023-04-06T10:32:35;8.57;;;7.63;;
12290;SDS011;6208;48.956;9.076;2023-04-06T10:35:20;8.57;;;7.13;;
12290;SDS011;6208;48.956;9.076;2023-04-06T10:38:05;7.97;;;6.80;;
12290;SDS011;6208;48.956;9.076;2023-04-06T10:40:50;7.85;;;7.05;;
12290;SDS011;6208;48.956;9.076;2023-04-06T10:43:34;8.00;;;7.30;;
12290;SDS011;6208;48.956;9.076;2023-04-06T10:46:26;9.25;;;7.68;;
12290;SDS011;6208;48.956;9.076;2023-04-06T10:49:12;8.50;;;7.60;;
12290;SDS011;6208;48.956;9.076;2023-04-06T10:51:56;8.13;;;7.32;;
12290;SDS011;6208;48.956;9.076;2023-04-06T10:54:42;8.82;;;8.02;;
12290;SDS011;6208;48.956;9.076;2023-04-06T10:57:30;9.18;;;8.27;;
12290;SDS011;6208;48.956;9.076;2023-04-06T11:00:17;10.23;;;8.70;;
12290;SDS011;6208;48.956;9.076;2023-04-06T11:03:03;8.50;;;7.70;;
12290;SDS011;6208;48.956;9.076;2023-04-06T11:05:49;8.63;;;7.88;;
12290;SDS011;6208;48.956;9.076;2023-04-06T11:08:34;9.43;;;8.52;;
12290;SDS011;6208;48.956;9.076;2023-04-06T11:11:21;8.77;;;7.88;;
12290;SDS011;6208;48.956;9.076;2023-04-06T11:14:09;9.25;;;8.35;;
12290;SDS011;6208;48.956;9.076;2023-04-06T11:16:54;9.55;;;8.57;;
12290;SDS011;6208;48.956;9.076;2023-04-06T11:19:38;9.43;;;8.13;;
12290;SDS011;6208;48.956;9.076;2023-04-06T11:22:23;8.75;;;7.80;;
12290;SDS011;6208;48.956;9.076;2023-04-06T11:25:08;8.68;;;7.78;;
12290;SDS011;6208;48.956;9.076;2023-04-06T11:27:53;8.85;;;7.95;;
12290;SDS011;6208;48.956;9.076;2023-04-06T11:30:37;8.90;;;8.00;;
12290;SDS011;6208;48.956;9.076;2023-04-06T11:33:22;8.13;;;7.43;;
12290;SDS011;6208;48.956;9.076;2023-04-06T11:36:06;8.07;;;7.28;;
12290;SDS011;6208;48.956;9.076;2023-04-06T11:38:50;9.02;;;8.13;;
12290;SDS011;6208;48.956;9.076;2023-04-06T11:41:35;7.75;;;6.97;;
12290;SDS011;6208;48.956;9.076;2023-04-06T11:44:31;13.15;;;7.65;;
12290;SDS011;6208;48.956;9.076;2023-04-06T11:47:26;8.82;;;8.00;;
12290;SDS011;6208;48.956;9.076;2023-04-06T11:50:14;8.38;;;7.57;;
12290;SDS011;6208;48.956;9.076;2023-04-06T11:52:59;9.55;;;8.63;;
12290;SDS011;6208;48.956;9.076;2023-04-06T11:55:44;8.20;;;7.40;;
12290;SDS011;6208;48.956;9.076;2023-04-06T11:58:30;9.57;;;8.00;;
12290;SDS011;6208;48.956;9.076;2023-04-06T12:01:14;9.15;;;8.35;;
12290;SDS011;6208;48.956;9.076;2023-04-06T12:03:58;9.43;;;8.63;;
12290;SDS011;6208;48.956;9.076;2023-04-06T12:06:43;13.32;;;8.68;;
12290;SDS011;6208;48.956;9.076;2023-04-06T12:09:28;9.50;;;8.60;;
12290;SDS011;6208;48.956;9.076;2023-04-06T12:12:12;10.90;;;8.55;;
12290;SDS011;6208;48.956;9.076;2023-04-06T12:14:57;10.18;;;9.00;;
12290;SDS011;6208;48.956;9.076;2023-04-06T12:17:42;8.60;;;7.80;;
12290;SDS011;6208;48.956;9.076;2023-04-06T12:20:26;11.07;;;8.95;;
12290;SDS011;6208;48.956;9.076;2023-04-06T12:23:11;8.27;;;7.53;;
12290;SDS011;6208;48.956;9.076;2023-04-06T12:25:55;8.50;;;7.72;;
12290;SDS011;6208;48.956;9.076;2023-04-06T12:28:39;8.35;;;7.47;;
12290;SDS011;6208;48.956;9.076;2023-04-06T12:31:24;8.50;;;7.78;;
12290;SDS011;6208;48.956;9.076;2023-04-06T12:34:09;9.35;;;7.93;;
12290;SDS011;6208;48.956;9.076;2023-04-06T12:36:53;8.85;;;8.05;;
12290;SDS011;6208;48.956;9.076;2023-04-06T12:39:38;9.20;;;8.25;;
12290;SDS011;6208;48.956;9.076;2023-04-06T12:42:22;8.70;;;7.75;;
12290;SDS011;6208;48.956;9.076;2023-04-06T12:45:06;8.57;;;7.85;;
12290;SDS011;6208;48.956;9.076;2023-04-06T12:47:52;9.35;;;7.88;;
12290;SDS011;6208;48.956;9.076;2023-04-06T12:50:36;10.27;;;8.13;;
12290;SDS011;6208;48.956;9.076;2023-04-06T12:53:20;8.77;;;7.93;;
12290;SDS011;6208;48.956;9.076;2023-04-06T12:56:12;8.57;;;7.50;;
12290;SDS011;6208;48.956;9.076;2023-04-06T12:58:57;8.70;;;7.90;;
12290;SDS011;6208;48.956;9.076;2023-04-06T13:01:41;9.18;;;8.00;;
12290;SDS011;6208;48.956;9.076;2023-04-06T13:04:27;9.77;;;7.53;;
12290;SDS011;6208;48.956;9.076;2023-04-06T13:07:11;9.05;;;7.80;;
12290;SDS011;6208;48.956;9.076;2023-04-06T13:09:56;8.23;;;7.43;;
12290;SDS011;6208;48.956;9.076;2023-04-06T13:12:40;9.32;;;7.82;;
12290;SDS011;6208;48.956;9.076;2023-04-06T13:15:25;9.30;;;7.70;;
12290;SDS011;6208;48.956;9.076;2023-04-06T13:18:09;8.80;;;7.72;;
12290;SDS011;6208;48.956;9.076;2023-04-06T13:20:55;8.35;;;7.65;;
12290;SDS011;6208;48.956;9.076;2023-04-06T13:23:39;7.68;;;6.97;;
12290;SDS011;6208;48.956;9.076;2023-04-06T13:26:23;7.97;;;7.18;;
12290;SDS011;6208;48.956;9.076;2023-04-06T13:29:08;8.38;;;7.57;;
12290;SDS011;6208;48.956;9.076;2023-04-06T13:31:52;10.02;;;7.10;;
12290;SDS011;6208;48.956;9.076;2023-04-06T13:34:37;11.45;;;9.00;;
12290;SDS011;6208;48.956;9.076;2023-04-06T13:37:21;9.43;;;8.52;;
12290;SDS011;6208;48.956;9.076;2023-04-06T13:40:06;9.98;;;8.15;;
12290;SDS011;6208;48.956;9.076;2023-04-06T13:42:51;8.35;;;7.45;;
12290;SDS011;6208;48.956;9.076;2023-04-06T13:45:35;8.45;;;7.65;;
12290;SDS011;6208;48.956;9.076;2023-04-06T13:48:20;8.73;;;7.60;;
12290;SDS011;6208;48.956;9.076;2023-04-06T13:51:11;8.35;;;7.57;;
12290;SDS011;6208;48.956;9.076;2023-04-06T13:53:56;8.68;;;7.72;;
12290;SDS011;6208;48.956;9.076;2023-04-06T13:56:40;7.65;;;6.93;;
12290;SDS011;6208;48.956;9.076;2023-04-06T13:59:25;9.18;;;8.02;;
12290;SDS011;6208;48.956;9.076;2023-04-06T14:02:16;9.18;;;7.15;;
12290;SDS011;6208;48.956;9.076;2023-04-06T14:05:00;8.35;;;7.47;;
12290;SDS011;6208;48.956;9.076;2023-04-06T14:07:44;8.18;;;7.22;;
12290;SDS011;6208;48.956;9.076;2023-04-06T14:10:28;8.82;;;7.80;;
12290;SDS011;6208;48.956;9.076;2023-04-06T14:13:12;9.30;;;7.40;;
12290;SDS011;6208;48.956;9.076;2023-04-06T14:16:00;8.48;;;7.35;;
12290;SDS011;6208;48.956;9.076;2023-04-06T14:18:45;8.25;;;7.10;;
12290;SDS011;6208;48.956;9.076;2023-04-06T14:21:29;9.05;;;7.43;;
12290;SDS011;6208;48.956;9.076;2023-04-06T14:24:14;11.13;;;7.55;;
12290;SDS011;6208;48.956;9.076;2023-04-06T14:27:00;8.45;;;7.53;;
12290;SDS011;6208;48.956;9.076;2023-04-06T14:29:44;8.73;;;7.60;;
12290;SDS011;6208;48.956;9.076;2023-04-06T14:32:29;8.43;;;7.53;;
12290;SDS011;6208;48.956;9.076;2023-04-06T14:35:13;8.75;;;6.88;;
12290;SDS011;6208;48.956;9.076;2023-04-06T14:37:57;7.78;;;7.00;;
12290;SDS011;6208;48.956;9.076;2023-04-06T14:40:41;7.95;;;7.13;;
12290;SDS011;6208;48.956;9.076;2023-04-06T14:43:26;7.38;;;6.70;;
12290;SDS011;6208;48.956;9.076;2023-04-06T14:46:10;7.95;;;7.15;;
12290;SDS011;6208;48.956;9.076;2023-04-06T14:48:54;8.00;;;7.20;;
12290;SDS011;6208;48.956;9.076;2023-04-06T14:51:39;8.75;;;6.72;;
12290;SDS011;6208;48.956;9.076;2023-04-06T14:54:24;9.02;;;6.88;;
12290;SDS011;6208;48.956;9.076;2023-04-06T14:57:08;7.38;;;6.68;;
12290;SDS011;6208;48.956;9.076;2023-04-06T14:59:53;7.57;;;6.88;;
12290;SDS011;6208;48.956;9.076;2023-04-06T15:02:38;8.27;;;6.65;;
12290;SDS011;6208;48.956;9.076;2023-04-06T15:05:23;7.40;;;6.65;;
12290;SDS011;6208;48.956;9.076;2023-04-06T15:08:09;7.55;;;6.85;;
12290;SDS011;6208;48.956;9.076;2023-04-06T15:10:53;7.68;;;6.90;;
12290;SDS011;6208;48.956;9.076;2023-04-06T15:13:40;13.32;;;6.78;;
12290;SDS011;6208;48.956;9.076;2023-04-06T15:16:25;7.93;;;6.75;;
12290;SDS011;6208;48.956;9.076;2023-04-06T15:19:09;8.30;;;6.97;;
12290;SDS011;6208;48.956;9.076;2023-04-06T15:21:54;7.30;;;6.60;;
12290;SDS011;6208;48.956;9.076;2023-04-06T15:24:38;7.38;;;6.60;;
12290;SDS011;6208;48.956;9.076;2023-04-06T15:27:22;7.45;;;6.82;;
12290;SDS011;6208;48.956;9.076;2023-04-06T15:30:07;7.00;;;6.38;;
12290;SDS011;6208;48.956;9.076;2023-04-06T15:32:52;9.63;;;6.35;;
12290;SDS011;6208;48.956;9.076;2023-04-06T15:35:38;7.18;;;6.47;;
12290;SDS011;6208;48.956;9.076;2023-04-06T15:38:25;7.85;;;7.05;;
12290;SDS011;6208;48.956;9.076;2023-04-06T15:41:09;9.93;;;6.82;;
12290;SDS011;6208;48.956;9.076;2023-04-06T15:43:54;10.82;;;6.90;;
12290;SDS011;6208;48.956;9.076;2023-04-06T15:46:38;6.68;;;6.07;;
12290;SDS011;6208;48.956;9.076;2023-04-06T15:49:22;6.70;;;6.10;;
12290;SDS011;6208;48.956;9.076;2023-04-06T15:52:06;7.10;;;6.50;;
12290;SDS011;6208;48.956;9.076;2023-04-06T15:54:50;8.20;;;6.30;;
12290;SDS011;6208;48.956;9.076;2023-04-06T15:57:35;7.45;;;6.45;;
12290;SDS011;6208;48.956;9.076;2023-04-06T16:00:19;6.43;;;5.85;;
12290;SDS011;6208;48.956;9.076;2023-04-06T16:03:03;6.78;;;5.55;;
12290;SDS011;6208;48.956;9.076;2023-04-06T16:05:47;7.60;;;5.88;;
12290;SDS011;6208;48.956;9.076;2023-04-06T16:08:31;7.53;;;6.72;;
12290;SDS011;6208;48.956;9.076;2023-04-06T16:11:15;9.02;;;6.03;;
12290;SDS011;6208;48.956;9.076;2023-04-06T16:13:59;7.13;;;6.43;;
12290;SDS011;6208;48.956;9.076;2023-04-06T16:16:44;6.78;;;6.05;;
12290;SDS011;6208;48.956;9.076;2023-04-06T16:19:29;7.78;;;6.15;;
12290;SDS011;6208;48.956;9.076;2023-04-06T16:22:13;7.10;;;5.82;;
12290;SDS011;6208;48.956;9.076;2023-04-06T16:24:58;7.93;;;5.75;;
12290;SDS011;6208;48.956;9.076;2023-04-06T16:27:42;9.77;;;5.40;;
12290;SDS011;6208;48.956;9.076;2023-04-06T16:30:26;5.75;;;5.15;;
12290;SDS011;6208;48.956;9.076;2023-04-06T16:33:12;5.30;;;4.80;;
12290;SDS011;6208;48.956;9.076;2023-04-06T16:35:59;7.25;;;5.32;;
12290;SDS011;6208;48.956;9.076;2023-04-06T16:38:44;9.00;;;5.70;;
12290;SDS011;6208;48.956;9.076;2023-04-06T16:41:28;5.85;;;5.25;;
12290;SDS011;6208;48.956;9.076;2023-04-06T16:44:12;5.63;;;5.10;;
12290;SDS011;6208;48.956;9.076;2023-04-06T16:46:56;4.95;;;4.45;;
12290;SDS011;6208;48.956;9.076;2023-04-06T16:49:41;5.55;;;4.90;;